Terminal Aerodrome Forecast
Issued by NWS Sterling, VA

Current Version | Previous Version | Text Only | Print | Product List | Glossary Off
Versions: 1 2 3 4 5 6 7 8 9 10 11 12 13 14 15 16 17 18 19 20 21 22 23 24 25

000
FTUS41 KLWX 291800 AAA
TAFDCA
TAF AMD
KDCA 291858Z 2919/3018 36005KT P6SM -RA BKN035 BKN045 OVC070
      TEMPO 2919/2920 4SM RA BR BKN030
     FM292100 33005KT P6SM BKN100
     FM300000 32005KT P6SM FEW250
     FM301600 34009KT P6SM SCT050=

USA.gov is the U.S. government's official web portal to all federal, state and local government web resources and services.